createdAt,value
2022-08-10T00:01:54.540Z,3.30
2022-08-10T00:04:23.362Z,3.67
2022-08-10T00:06:55.012Z,3.13
2022-08-10T00:09:23.261Z,3.45
2022-08-10T00:11:50.242Z,3.00
2022-08-10T00:14:17.405Z,3.20
2022-08-10T00:16:44.513Z,3.15
2022-08-10T00:19:11.655Z,3.58
2022-08-10T00:21:38.440Z,3.40
2022-08-10T00:24:05.261Z,3.65
2022-08-10T00:27:58.876Z,3.80
2022-08-10T00:29:19.047Z,3.70
2022-08-10T00:31:58.890Z,3.42
2022-08-10T00:34:27.657Z,3.85
2022-08-10T00:36:54.677Z,3.58
2022-08-10T00:39:21.736Z,3.85
2022-08-10T00:42:06.455Z,3.60
2022-08-10T00:44:40.389Z,3.60
2022-08-10T00:47:21.323Z,4.05
2022-08-10T00:49:55.792Z,4.07
2022-08-10T00:52:25.237Z,4.30
2022-08-10T00:54:52.905Z,3.50
2022-08-10T00:57:19.875Z,3.67
2022-08-10T00:59:57.594Z,3.97
2022-08-10T01:02:29.070Z,3.75
2022-08-10T01:04:59.241Z,4.10
2022-08-10T01:07:40.858Z,4.00
2022-08-10T01:10:32.441Z,3.90
2022-08-10T01:13:39.306Z,4.07
2022-08-10T01:16:18.208Z,4.07
2022-08-10T01:18:53.845Z,3.92
2022-08-10T01:21:56.794Z,4.13
2022-08-10T01:24:36.076Z,3.88
2022-08-10T01:27:27.357Z,3.70
2022-08-10T01:30:09.353Z,4.35
2022-08-10T01:32:50.552Z,4.35
2022-08-10T01:35:24.549Z,4.32
2022-08-10T01:38:03.259Z,3.97
2022-08-10T01:40:32.624Z,4.90
2022-08-10T01:43:08.435Z,4.65
2022-08-10T01:45:45.593Z,4.40
2022-08-10T01:48:35.624Z,4.18
2022-08-10T01:51:22.074Z,4.20
2022-08-10T01:53:56.607Z,4.07
2022-08-10T01:56:26.241Z,4.10
2022-08-10T01:58:59.497Z,4.07
2022-08-10T02:01:30.680Z,4.28
2022-08-10T02:04:04.882Z,4.30
2022-08-10T02:06:38.468Z,4.63
2022-08-10T02:09:07.668Z,4.47
2022-08-10T02:12:06.965Z,4.30
2022-08-10T02:14:33.279Z,4.10
2022-08-10T02:17:05.799Z,4.55
2022-08-10T02:19:34.655Z,4.43
2022-08-10T02:22:35.100Z,4.40
2022-08-10T02:24:50.907Z,4.80
2022-08-10T02:27:19.253Z,4.30
2022-08-10T02:29:49.180Z,4.15
2022-08-10T02:32:30.806Z,3.97
2022-08-10T02:35:07.526Z,4.03
2022-08-10T02:37:39.084Z,3.78
2022-08-10T02:40:06.729Z,4.22
2022-08-10T02:45:20.125Z,3.90
2022-08-10T02:46:09.639Z,4.10
2022-08-10T02:48:45.305Z,4.00
2022-08-10T02:52:06.724Z,4.38
2022-08-10T02:54:22.855Z,4.10
2022-08-10T02:57:13.799Z,3.92
2022-08-10T02:59:45.295Z,4.20
2022-08-10T03:02:35.123Z,4.07
2022-08-10T03:05:09.447Z,4.32
2022-08-10T03:07:45.085Z,4.30
2022-08-10T03:10:26.692Z,4.20
2022-08-10T03:13:01.725Z,4.18
2022-08-10T03:15:30.043Z,3.95
2022-08-10T03:17:59.052Z,4.03
2022-08-10T03:20:37.119Z,4.20
2022-08-10T03:23:16.346Z,4.40
2022-08-10T03:25:53.668Z,3.63
2022-08-10T03:28:28.012Z,3.72
2022-08-10T03:30:56.560Z,4.47
2022-08-10T03:33:27.242Z,4.00
2022-08-10T03:36:41.228Z,4.05
2022-08-10T03:38:43.764Z,3.70
2022-08-10T03:41:15.830Z,4.00
2022-08-10T03:43:46.412Z,3.90
2022-08-10T03:46:15.540Z,4.25
2022-08-10T03:48:47.106Z,4.03
2022-08-10T03:51:18.703Z,4.00
2022-08-10T03:54:06.117Z,3.80
2022-08-10T03:56:36.777Z,3.67
2022-08-10T03:59:05.456Z,4.05
2022-08-10T04:02:44.710Z,3.80
2022-08-10T04:04:24.959Z,4.00
2022-08-10T04:06:58.705Z,3.85
2022-08-10T04:09:53.190Z,3.45
2022-08-10T04:12:17.984Z,4.05
2022-08-10T04:14:50.771Z,3.47
2022-08-10T04:18:01.235Z,3.55
2022-08-10T04:20:39.042Z,4.05
2022-08-10T04:23:11.587Z,4.03
2022-08-10T04:25:40.950Z,3.60
2022-08-10T04:28:09.172Z,3.72
2022-08-10T04:30:36.972Z,3.75
2022-08-10T04:33:06.777Z,3.80
2022-08-10T04:35:35.565Z,4.18
2022-08-10T04:38:04.259Z,4.05
2022-08-10T04:40:31.883Z,3.38
2022-08-10T04:45:48.677Z,3.70
2022-08-10T04:48:43.249Z,3.88
2022-08-10T04:51:17.081Z,3.83
2022-08-10T04:54:05.496Z,3.72
2022-08-10T04:56:33.162Z,3.47
2022-08-10T04:59:00.919Z,3.90
2022-08-10T05:01:37.792Z,4.18
2022-08-10T05:04:33.794Z,3.60
2022-08-10T05:07:02.878Z,4.00
2022-08-10T05:09:29.622Z,3.78
2022-08-10T05:11:56.388Z,3.35
2022-08-10T05:14:23.183Z,3.05
2022-08-10T05:16:49.977Z,2.85
2022-08-10T05:19:16.772Z,2.78
2022-08-10T05:21:52.080Z,2.80
2022-08-10T05:24:31.781Z,2.53
2022-08-10T05:27:09.151Z,2.58
2022-08-10T05:29:37.328Z,2.20
2022-08-10T05:32:04.688Z,2.40
2022-08-10T05:34:31.569Z,2.40
2022-08-10T05:36:58.623Z,2.13
2022-08-10T05:39:30.446Z,2.55
2022-08-10T05:42:01.689Z,2.13
2022-08-10T05:44:29.742Z,2.30
2022-08-10T05:46:56.882Z,2.30
2022-08-10T05:49:23.829Z,2.30
2022-08-10T05:51:51.060Z,2.25
2022-08-10T05:54:18.171Z,2.30
2022-08-10T05:56:55.642Z,2.35
2022-08-10T06:00:35.745Z,2.58
2022-08-10T06:02:36.432Z,2.47
2022-08-10T06:08:56.234Z,2.10
2022-08-10T06:12:28.532Z,2.22
2022-08-10T06:14:31.801Z,2.05
2022-08-10T06:17:01.214Z,2.38
2022-08-10T06:19:29.338Z,2.20
2022-08-10T06:22:01.133Z,2.28
2022-08-10T06:24:31.258Z,2.15
2022-08-10T06:26:59.086Z,2.13
2022-08-10T06:29:29.489Z,2.10
2022-08-10T06:31:57.158Z,2.03
2022-08-10T06:34:43.624Z,2.20
2022-08-10T06:37:14.220Z,2.50
2022-08-10T06:39:41.156Z,2.20
2022-08-10T06:42:27.989Z,2.10
2022-08-10T06:45:13.340Z,2.28
2022-08-10T06:48:03.433Z,2.00
2022-08-10T06:53:25.669Z,2.13
2022-08-10T06:56:16.000Z,2.20
2022-08-10T06:59:22.113Z,2.00
2022-08-10T07:02:06.436Z,1.90
2022-08-10T07:04:45.722Z,2.20
2022-08-10T07:07:18.656Z,2.33
2022-08-10T07:09:47.625Z,2.10
2022-08-10T07:12:15.933Z,2.15
2022-08-10T07:14:45.060Z,1.90
2022-08-10T07:17:15.810Z,2.13
2022-08-10T07:19:49.920Z,1.88
2022-08-10T07:23:08.332Z,1.95
2022-08-10T07:25:09.201Z,2.10
2022-08-10T07:27:58.381Z,1.75
2022-08-10T07:30:28.345Z,1.90
2022-08-10T07:32:56.488Z,1.80
2022-08-10T07:35:26.559Z,1.58
2022-08-10T07:37:54.832Z,1.70
2022-08-10T07:40:23.654Z,1.88
2022-08-10T07:42:56.680Z,1.88
2022-08-10T07:45:25.762Z,1.92
2022-08-10T07:47:59.812Z,2.10
2022-08-10T07:50:35.445Z,2.00
2022-08-10T07:53:04.481Z,1.85
2022-08-10T07:56:05.944Z,1.65
2022-08-10T07:58:22.281Z,1.80
2022-08-10T08:00:52.199Z,1.90
2022-08-10T08:03:24.991Z,1.90
2022-08-10T08:05:58.735Z,1.70
2022-08-10T08:08:32.088Z,2.17
2022-08-10T08:10:59.628Z,2.13
2022-08-10T08:13:28.211Z,2.00
2022-08-10T08:16:21.517Z,1.90
2022-08-10T08:19:03.957Z,1.98
2022-08-10T08:24:07.658Z,1.80
2022-08-10T08:24:32.351Z,1.75
2022-08-10T08:27:02.875Z,2.05
2022-08-10T08:29:34.071Z,1.80
2022-08-10T08:32:03.629Z,1.60
2022-08-10T08:34:36.923Z,1.90
2022-08-10T08:37:05.530Z,2.28
2022-08-10T08:39:33.480Z,1.50
2022-08-10T08:42:18.632Z,1.77
2022-08-10T08:45:15.170Z,1.75
2022-08-10T08:48:04.021Z,1.88
2022-08-10T08:50:48.548Z,1.90
2022-08-10T08:54:00.991Z,1.98
2022-08-10T08:56:39.051Z,1.73
2022-08-10T08:59:22.884Z,2.10
2022-08-10T09:01:55.503Z,2.10
2022-08-10T09:04:28.348Z,2.15
2022-08-10T09:08:00.809Z,2.00
2022-08-10T09:10:45.746Z,1.70
2022-08-10T09:13:57.662Z,1.83
2022-08-10T09:17:02.629Z,2.00
2022-08-10T09:19:52.398Z,1.63
2022-08-10T09:22:26.199Z,1.85
2022-08-10T09:25:19.063Z,2.38
2022-08-10T09:27:49.701Z,1.73
2022-08-10T09:30:32.976Z,1.95
2022-08-10T09:36:20.576Z,1.75
2022-08-10T09:36:22.444Z,2.05
2022-08-10T09:40:56.203Z,1.70
2022-08-10T09:42:39.758Z,5.07
2022-08-10T09:45:36.887Z,2.53
2022-08-10T09:48:22.208Z,3.35
2022-08-10T09:51:43.778Z,4.05
2022-08-10T09:54:12.721Z,5.43
2022-08-10T09:57:43.317Z,7.47
2022-08-10T10:00:14.773Z,2.67
2022-08-10T10:02:55.876Z,1.88
2022-08-10T10:05:51.189Z,7.95
2022-08-10T10:08:22.123Z,25.40
2022-08-10T10:11:11.941Z,11.07
2022-08-10T10:14:02.112Z,4.50
2022-08-10T10:17:15.745Z,2.08
2022-08-10T10:20:04.702Z,1.80
2022-08-10T10:22:46.192Z,1.67
2022-08-10T10:25:51.478Z,1.83
2022-08-10T10:29:15.391Z,1.70
2022-08-10T10:31:33.178Z,1.77
2022-08-10T10:34:13.927Z,1.60
2022-08-10T10:36:43.458Z,1.70
2022-08-10T10:39:14.284Z,1.50
2022-08-10T10:41:56.152Z,1.75
2022-08-10T10:44:56.168Z,1.88
2022-08-10T10:47:23.548Z,1.80
2022-08-10T10:50:06.851Z,1.70
2022-08-10T10:53:05.419Z,1.83
2022-08-10T10:56:15.212Z,2.08
2022-08-10T10:59:02.602Z,2.08
2022-08-10T11:02:16.177Z,1.88
2022-08-10T11:04:51.949Z,2.05
2022-08-10T11:07:33.891Z,1.98
2022-08-10T11:10:32.033Z,1.63
2022-08-10T11:13:02.319Z,1.80
2022-08-10T11:16:05.757Z,1.75
2022-08-10T11:18:33.869Z,2.10
2022-08-10T11:21:24.291Z,2.28
2022-08-10T11:26:46.932Z,1.75
2022-08-10T11:29:53.056Z,1.90
2022-08-10T11:32:30.130Z,1.80
2022-08-10T11:35:10.485Z,1.80
2022-08-10T11:38:29.773Z,1.77
2022-08-10T11:41:12.783Z,1.88
2022-08-10T11:43:57.088Z,1.60
2022-08-10T11:46:36.527Z,1.98
2022-08-10T11:49:13.647Z,1.80
2022-08-10T11:51:48.860Z,1.90
2022-08-10T11:54:37.213Z,1.95
2022-08-10T11:57:04.269Z,1.70
2022-08-10T11:59:58.170Z,1.50
2022-08-10T12:02:42.714Z,1.92
2022-08-10T12:05:18.899Z,1.73
2022-08-10T12:10:01.950Z,1.50
2022-08-10T12:10:43.137Z,1.83
2022-08-10T12:13:15.444Z,1.63
2022-08-10T12:16:05.831Z,1.73
2022-08-10T12:19:10.653Z,1.85
2022-08-10T12:21:50.539Z,1.70
2022-08-10T12:24:37.662Z,1.70
2022-08-10T12:27:23.971Z,1.88
2022-08-10T12:30:11.286Z,1.60
2022-08-10T12:33:10.525Z,1.40
2022-08-10T12:36:17.507Z,1.75
2022-08-10T12:39:14.498Z,1.20
2022-08-10T12:42:41.534Z,1.60
2022-08-10T12:45:35.874Z,1.30
2022-08-10T12:48:19.999Z,1.70
2022-08-10T12:50:59.615Z,1.70
2022-08-10T12:54:03.994Z,1.70
2022-08-10T12:56:39.420Z,1.35
2022-08-10T12:59:09.718Z,1.70
2022-08-10T13:02:10.661Z,1.60
2022-08-10T13:07:01.857Z,1.73
2022-08-10T13:09:30.220Z,1.63
2022-08-10T13:12:35.929Z,1.70
2022-08-10T13:14:59.843Z,1.60
2022-08-10T13:17:53.271Z,1.50
2022-08-10T13:20:29.053Z,1.60
2022-08-10T13:22:59.829Z,1.73
2022-08-10T13:25:32.481Z,1.67
2022-08-10T13:28:36.460Z,1.58
2022-08-10T13:30:55.578Z,1.60
2022-08-10T13:34:40.828Z,1.85
2022-08-10T13:36:20.606Z,1.70
2022-08-10T13:38:52.144Z,1.90
2022-08-10T13:41:20.213Z,2.03
2022-08-10T13:43:56.583Z,1.50
2022-08-10T13:46:24.336Z,1.48
2022-08-10T13:48:55.475Z,1.70
2022-08-10T13:54:13.246Z,1.60
2022-08-10T13:58:18.004Z,1.50
2022-08-10T14:00:46.390Z,1.55
2022-08-10T14:03:16.267Z,1.70
2022-08-10T14:05:53.715Z,1.45
2022-08-10T14:08:25.662Z,1.30
2022-08-10T14:11:09.064Z,1.40
2022-08-10T14:13:51.091Z,1.40
2022-08-10T14:16:19.645Z,1.50
2022-08-10T14:18:49.848Z,1.40
2022-08-10T14:21:17.467Z,1.50
2022-08-10T14:23:55.906Z,1.50
2022-08-10T14:26:33.176Z,1.75
2022-08-10T14:29:09.887Z,1.40
2022-08-10T14:32:01.094Z,1.73
2022-08-10T14:36:16.610Z,1.55
2022-08-10T14:37:57.887Z,1.90
2022-08-10T14:40:33.853Z,1.90
2022-08-10T14:43:05.051Z,1.73
2022-08-10T14:45:37.641Z,1.70
2022-08-10T14:48:13.239Z,1.70
2022-08-10T14:50:55.261Z,2.10
2022-08-10T14:53:34.335Z,1.45
2022-08-10T14:56:08.114Z,1.50
2022-08-10T14:58:59.193Z,1.52
2022-08-10T15:02:38.949Z,1.73
2022-08-10T15:04:26.661Z,1.95
2022-08-10T15:06:59.895Z,1.83
2022-08-10T15:10:00.057Z,1.70
2022-08-10T15:12:26.341Z,1.60
2022-08-10T15:14:58.632Z,1.60
2022-08-10T15:17:34.900Z,1.80
2022-08-10T15:20:20.349Z,1.73
2022-08-10T15:22:55.703Z,1.70
2022-08-10T15:25:26.370Z,1.90
2022-08-10T15:28:05.490Z,1.50
2022-08-10T15:30:43.113Z,1.43
2022-08-10T15:37:30.539Z,1.70
2022-08-10T15:40:23.816Z,1.60
2022-08-10T15:42:27.934Z,1.33
2022-08-10T15:44:55.032Z,1.35
2022-08-10T15:48:00.554Z,1.55
2022-08-10T15:50:43.924Z,1.73
2022-08-10T15:55:59.500Z,1.60
2022-08-10T15:58:39.317Z,1.80
2022-08-10T16:02:13.691Z,1.52
2022-08-10T16:04:34.892Z,1.75
2022-08-10T16:07:11.858Z,1.60
2022-08-10T16:10:22.149Z,1.60
2022-08-10T16:12:59.331Z,1.65
2022-08-10T16:15:29.116Z,1.60
2022-08-10T16:22:02.877Z,1.70
2022-08-10T16:24:53.495Z,1.65
2022-08-10T16:27:25.825Z,2.00
2022-08-10T16:29:59.968Z,1.65
2022-08-10T16:32:33.146Z,1.73
2022-08-10T16:35:01.971Z,1.75
2022-08-10T16:37:56.597Z,1.80
2022-08-10T16:40:30.132Z,1.58
2022-08-10T16:43:01.674Z,1.58
2022-08-10T16:45:43.642Z,1.90
2022-08-10T16:48:11.310Z,1.63
2022-08-10T16:50:42.873Z,1.40
2022-08-10T16:53:16.606Z,1.55
2022-08-10T16:55:52.850Z,1.88
2022-08-10T16:58:33.612Z,1.85
2022-08-10T17:01:15.704Z,1.60
2022-08-10T17:04:07.984Z,1.70
2022-08-10T17:06:52.481Z,1.55
2022-08-10T17:09:29.132Z,1.60
2022-08-10T17:11:58.786Z,1.50
2022-08-10T17:14:28.681Z,1.70
2022-08-10T17:17:02.401Z,1.50
2022-08-10T17:19:37.449Z,1.70
2022-08-10T17:22:14.204Z,1.85
2022-08-10T17:24:47.082Z,1.52
2022-08-10T17:28:04.480Z,1.52
2022-08-10T17:30:15.654Z,1.50
2022-08-10T17:35:55.760Z,1.67
2022-08-10T17:38:31.083Z,1.60
2022-08-10T17:41:26.422Z,1.60
2022-08-10T17:44:18.855Z,1.60
2022-08-10T17:47:27.453Z,1.70
2022-08-10T17:49:58.830Z,1.70
2022-08-10T17:52:29.348Z,1.80
2022-08-10T17:55:08.666Z,1.80
2022-08-10T17:57:38.992Z,2.00
2022-08-10T18:00:14.637Z,1.70
2022-08-10T18:02:46.597Z,1.60
2022-08-10T18:05:15.096Z,1.73
2022-08-10T18:07:53.024Z,1.73
2022-08-10T18:10:55.254Z,2.17
2022-08-10T18:13:24.095Z,1.58
2022-08-10T18:15:55.843Z,1.67
2022-08-10T18:18:29.463Z,1.90
2022-08-10T18:21:23.694Z,1.90
2022-08-10T18:23:59.745Z,1.70
2022-08-10T18:26:27.912Z,1.98
2022-08-10T18:28:56.797Z,2.08
2022-08-10T18:31:26.410Z,1.83
2022-08-10T18:33:58.484Z,2.10
2022-08-10T18:36:27.117Z,1.92
2022-08-10T18:38:57.045Z,2.00
2022-08-10T18:41:37.571Z,1.77
2022-08-10T18:46:59.696Z,2.20
2022-08-10T18:49:32.232Z,2.08
2022-08-10T18:52:04.431Z,2.05
2022-08-10T18:54:43.910Z,2.10
2022-08-10T18:57:29.989Z,2.35
2022-08-10T19:00:21.487Z,2.60
2022-08-10T19:02:57.737Z,2.30
2022-08-10T19:05:53.988Z,2.40
2022-08-10T19:09:47.378Z,1.90
2022-08-10T19:12:30.185Z,1.90
2022-08-10T19:15:09.693Z,1.98
2022-08-10T19:18:07.687Z,2.30
2022-08-10T19:21:02.888Z,1.88
2022-08-10T19:23:29.942Z,2.10
2022-08-10T19:26:44.130Z,2.30
2022-08-10T19:30:11.418Z,2.17
2022-08-10T19:32:52.398Z,2.10
2022-08-10T19:36:03.508Z,2.20
2022-08-10T19:38:34.257Z,2.40
2022-08-10T19:41:20.062Z,2.08
2022-08-10T19:44:21.683Z,2.30
2022-08-10T19:47:01.607Z,2.30
2022-08-10T19:49:29.905Z,2.22
2022-08-10T19:52:23.151Z,2.10
2022-08-10T19:55:00.929Z,2.17
2022-08-10T19:57:49.993Z,2.30
2022-08-10T20:00:22.799Z,2.30
2022-08-10T20:03:11.954Z,2.20
2022-08-10T20:06:18.079Z,2.30
2022-08-10T20:09:06.559Z,2.35
2022-08-10T20:12:01.161Z,2.30
2022-08-10T20:14:49.809Z,2.10
2022-08-10T20:17:51.142Z,2.20
2022-08-10T20:20:26.527Z,2.30
2022-08-10T20:23:16.992Z,2.22
2022-08-10T20:25:51.433Z,2.53
2022-08-10T20:28:39.582Z,2.90
2022-08-10T20:31:17.171Z,2.33
2022-08-10T20:34:01.506Z,2.55
2022-08-10T20:36:39.504Z,2.10
2022-08-10T20:39:26.558Z,2.58
2022-08-10T20:41:58.011Z,2.45
2022-08-10T20:44:27.581Z,2.20
2022-08-10T20:47:08.536Z,2.83
2022-08-10T20:49:59.231Z,2.70
2022-08-10T20:52:27.786Z,2.60
2022-08-10T20:55:02.037Z,2.75
2022-08-10T20:57:57.720Z,2.90
2022-08-10T21:00:53.728Z,2.70
2022-08-10T21:03:51.581Z,2.70
2022-08-10T21:06:44.590Z,2.53
2022-08-10T21:09:26.989Z,2.47
2022-08-10T21:11:56.986Z,2.60
2022-08-10T21:14:48.243Z,2.53
2022-08-10T21:17:46.338Z,2.38
2022-08-10T21:20:33.179Z,2.60
2022-08-10T21:23:05.491Z,2.70
2022-08-10T21:26:09.909Z,2.30
2022-08-10T21:28:53.216Z,2.40
2022-08-10T21:31:28.449Z,2.40
2022-08-10T21:34:15.334Z,2.35
2022-08-10T21:36:58.533Z,2.75
2022-08-10T21:40:07.649Z,2.80
2022-08-10T21:43:51.666Z,2.75
2022-08-10T21:47:07.646Z,2.38
2022-08-10T21:50:07.235Z,2.53
2022-08-10T21:53:11.299Z,2.80
2022-08-10T21:56:24.721Z,2.55
2022-08-10T21:59:20.537Z,2.90
2022-08-10T22:02:14.873Z,2.75
2022-08-10T22:05:00.391Z,2.30
2022-08-10T22:07:49.339Z,2.60
2022-08-10T22:10:39.352Z,2.60
2022-08-10T22:13:26.138Z,2.42
2022-08-10T22:16:16.623Z,3.13
2022-08-10T22:22:06.325Z,2.75
2022-08-10T22:25:20.557Z,2.67
2022-08-10T22:28:17.810Z,2.58
2022-08-10T22:31:32.548Z,2.80
2022-08-10T22:35:00.527Z,2.70
2022-08-10T22:38:07.962Z,2.45
2022-08-10T22:40:53.610Z,2.90
2022-08-10T22:43:46.275Z,2.75
2022-08-10T22:46:37.550Z,2.40
2022-08-10T22:49:04.931Z,3.08
2022-08-10T22:51:54.821Z,2.50
2022-08-10T22:55:08.132Z,2.60
2022-08-10T22:57:53.436Z,3.03
2022-08-10T23:00:30.895Z,3.00
2022-08-10T23:03:15.276Z,2.70
2022-08-10T23:05:56.647Z,2.70
2022-08-10T23:08:31.284Z,2.47
2022-08-10T23:11:04.376Z,2.83
2022-08-10T23:13:40.788Z,2.78
2022-08-10T23:16:40.994Z,2.92
2022-08-10T23:19:22.622Z,2.70
2022-08-10T23:22:05.617Z,2.83
2022-08-10T23:24:35.113Z,3.22
2022-08-10T23:27:10.282Z,2.80
2022-08-10T23:30:09.984Z,2.67
2022-08-10T23:32:36.296Z,3.08
2022-08-10T23:36:31.401Z,3.10
2022-08-10T23:37:59.766Z,3.00
2022-08-10T23:40:27.520Z,2.97
2022-08-10T23:42:56.775Z,3.00
2022-08-10T23:45:31.518Z,2.85
2022-08-10T23:48:19.937Z,2.80
2022-08-10T23:53:42.293Z,2.85
2022-08-10T23:56:18.134Z,2.60
2022-08-10T23:58:46.604Z,3.10
